РУС

ENG

 
  Pireps - S7
 

Рейс SBI2141

  • Выполнял: Valeriy Volkov
  • Аэропорт отправления: Domodedovo Airport (UUDD)
  • Аэропорт назначения: Gumrak airport Volgograd (URWW)
  • Тип ВС: B737-800 (VP-BND)
  • Время полёта: 01.23
  • Дата полёта: 26.09.2020
  • Маршрут: DK FV R11 BUTRI R120 ST
  • Статус: Одобрен

Детали полёта
Gross Revenue:
(114 load / $ 100.00 per unit
$ 11, 400.00
Fuel Cost:
(3854 fuel used @ 5.1 / unit)
$ 19, 655.40


Дополнительная информация о полёте:

Лог

Aircraft Used in flight is Boeing 737-800RG_mod S7 One World VQ-BKW
23:43Flaps 3 Selected at 590ft and 3kts
23:43 Boarding
23:43 Engine 1 Started
23:43 Engine 2 Started
23:43 Engine 3 Started
23:43 Engine 4 Started
23:43 Beacon Lights ON at 590 AGL
23:43 Brakes are On
23:43 Landing Lights ON at 590 AGL
23:43 Brakes are Released
23:44 You Took off @ 170 Knots and Flaps at Position 3
Departure Weather
UUDD 252030Z 15004MPS CAVOK 11/07 Q1020 R14R/CLRD60 NOSIG
23:44 You are Airborne and your Navigation Lights are off
23:44 Landing Gear Up @ 173 Knots and 590 Feet
23:44 Brakes are On
23:45Flaps 2 Selected at 3560ft and 206kts
23:45Flaps 1 Selected at 3560ft and 206kts
23:45Flaps Retracted at 3570ft and 206kts
23:45 Below 10000 feet you are not allowed to go over 250 knots
23:46 Landing Lights OFF at 10000 AGL
00:01 TOC Reached
00:56 Landing Lights ON at 9940 AGL
01:00Flaps 1 Selected at 3490ft and 249kts
01:02Flaps 2 Selected at 2780ft and 237kts
01:02Flaps 3 Selected at 2740ft and 235kts
01:02 Landing Gear Down @ 200 Knots and 2670 Feet
01:03 Brakes are Released
01:03Flaps 4 Selected at 2680ft and 169kts
01:03Flaps 5 Selected at 2620ft and 169kts
01:03Flaps 6 Selected at 2610ft and 169kts
01:04Flaps 7 Selected at 2280ft and 175kts
01:06Flaps 8 Selected at 510ft and 157kts
01:06 Brakes are On
01:06 You Landed @ 140 Knots and with -100 Vertical Speed
Arrival Weather
URWW 252030Z 10004MPS CAVOK 16/04 Q1019 R06/010070 NOSIG
01:06 Brakes are Released
01:06 Brakes are On
Pirep logged with S7 Tracking 1.0.0.14


!!! Посадочные фары не выключены при наборе высоты с 5000 ft. до 10 000 ft.: -5%


Общая оценка полета : 95%




Route Map



 
 
   
 
Новости

03.09.2020 - Полеты в MFS 2020

Спешим сообщить вам, что теперь наш S7 Pad поддерживается для полетов в новом симуляторе MFS 2020. В разделе Загрузки вы найдете FSUIPC7.rar
Инструкция для запуска прилагается!

   
 
Авторизация






Регистрация

Восстановить пароль?

Мы в соц. сетях

      



   
 





   
 


   
 


Яндекс.Метрика

www.va-s7.ru 2011-2020
Все права защищены.



Минуточку внимания!
Сайт va-s7.ru не является коммерческим проектом. Мы не имеем отношения к торговым маркам "S7" и "Globus" и их представителям.
Эмблемы на сайте являются собственностью соответствующих компаний.

аэронавигационная метеорологическая и любая другая информация с данного ресурса ни в коем случае не должна использоваться для реальных полетов